createdAt,value
2023-03-15T00:41:20.664Z,53.20
2023-03-15T00:43:51.018Z,53.70
2023-03-15T00:46:22.173Z,53.80
2023-03-15T00:48:52.424Z,52.50
2023-03-15T00:51:25.881Z,51.50
2023-03-15T00:53:55.911Z,51.70
2023-03-15T00:56:28.127Z,51.90
2023-03-15T00:58:57.905Z,52.30
2023-03-15T01:01:28.925Z,51.50
2023-03-15T01:03:59.871Z,50.90
2023-03-15T01:06:30.020Z,49.60
2023-03-15T01:09:00.628Z,48.90
2023-03-15T01:11:31.227Z,49.30
2023-03-15T01:14:02.679Z,48.90
2023-03-15T01:16:32.454Z,48.70
2023-03-15T01:19:02.365Z,48.90
2023-03-15T01:21:31.855Z,49.10
2023-03-15T01:24:01.325Z,49.40
2023-03-15T01:26:30.726Z,49.40
2023-03-15T01:29:00.581Z,49.90
2023-03-15T01:31:32.265Z,49.70
2023-03-15T01:34:03.627Z,49.40
2023-03-15T01:36:33.626Z,49.90
2023-03-15T01:39:03.407Z,49.90
2023-03-15T01:41:33.796Z,49.20
2023-03-15T01:44:04.340Z,49.70
2023-03-15T01:46:36.596Z,49.90
2023-03-15T01:49:15.349Z,48.70
2023-03-15T01:51:50.936Z,48.00
2023-03-15T01:54:22.722Z,47.60
2023-03-15T01:56:59.731Z,47.60
2023-03-15T01:59:32.607Z,47.80
2023-03-15T02:02:03.290Z,47.70
2023-03-15T02:04:49.233Z,46.20
2023-03-15T02:07:19.943Z,46.50
2023-03-15T02:10:07.657Z,43.00
2023-03-15T02:12:38.969Z,43.90
2023-03-15T02:15:09.534Z,43.70
2023-03-15T02:17:43.397Z,44.60
2023-03-15T02:20:22.101Z,45.30
2023-03-15T02:22:58.935Z,45.00
2023-03-15T02:25:28.893Z,44.70
2023-03-15T02:27:59.493Z,44.40
2023-03-15T02:30:28.873Z,43.40
2023-03-15T02:32:59.080Z,42.60
2023-03-15T02:35:30.793Z,42.20
2023-03-15T02:38:00.982Z,42.00
2023-03-15T02:40:31.261Z,42.70
2023-03-15T02:43:06.802Z,42.90
2023-03-15T02:45:37.897Z,43.30
2023-03-15T02:48:08.006Z,43.20
2023-03-15T02:50:37.528Z,43.40
2023-03-15T02:53:07.333Z,40.20
2023-03-15T02:55:37.162Z,41.00
2023-03-15T02:58:06.519Z,41.50
2023-03-15T03:00:36.240Z,39.00
2023-03-15T03:03:06.062Z,38.30
2023-03-15T03:05:36.474Z,38.40
2023-03-15T03:08:06.260Z,39.30
2023-03-15T03:10:35.667Z,40.20
2023-03-15T03:13:05.425Z,40.40
2023-03-15T03:15:34.809Z,41.40
2023-03-15T03:18:04.462Z,41.90
2023-03-15T03:20:35.031Z,40.60
2023-03-15T03:23:07.725Z,41.10
2023-03-15T03:25:38.326Z,42.00
2023-03-15T03:28:08.865Z,42.20
2023-03-15T03:30:38.705Z,42.20
2023-03-15T03:33:08.254Z,41.70
2023-03-15T03:35:38.042Z,41.80
2023-03-15T03:38:07.797Z,42.10
2023-03-15T03:40:38.197Z,42.80
2023-03-15T03:43:08.425Z,43.40
2023-03-15T03:45:39.006Z,44.00
2023-03-15T03:48:08.438Z,43.90
2023-03-15T03:50:38.404Z,43.50
2023-03-15T03:53:07.741Z,42.70
2023-03-15T03:55:37.112Z,42.50
2023-03-15T03:58:06.543Z,41.70
2023-03-15T04:00:35.869Z,41.00
2023-03-15T04:03:05.213Z,41.00
2023-03-15T04:05:35.603Z,40.30
2023-03-15T04:08:05.363Z,40.90
2023-03-15T04:10:36.711Z,40.60
2023-03-15T04:13:06.245Z,40.70
2023-03-15T04:15:35.984Z,41.30
2023-03-15T04:18:07.571Z,40.60
2023-03-15T04:20:36.907Z,39.50
2023-03-15T04:23:08.894Z,38.90
2023-03-15T04:25:38.252Z,38.90
2023-03-15T04:28:12.567Z,38.90
2023-03-15T04:30:44.270Z,38.80
2023-03-15T04:33:13.648Z,37.60
2023-03-15T04:35:44.571Z,37.50
2023-03-15T04:38:14.271Z,37.90
2023-03-15T04:40:44.423Z,38.20
2023-03-15T04:43:14.209Z,37.30
2023-03-15T04:45:43.584Z,37.20
2023-03-15T04:48:12.941Z,36.70
2023-03-15T04:50:42.822Z,35.30
2023-03-15T04:53:13.260Z,35.90
2023-03-15T04:55:42.864Z,36.40
2023-03-15T04:58:12.419Z,36.10
2023-03-15T05:00:42.290Z,36.80
2023-03-15T05:03:11.689Z,36.70
2023-03-15T05:05:41.495Z,37.40
2023-03-15T05:08:10.832Z,37.70
2023-03-15T05:10:41.168Z,38.50
2023-03-15T05:13:10.967Z,39.60
2023-03-15T05:15:40.752Z,39.50
2023-03-15T05:18:10.525Z,39.90
2023-03-15T05:20:40.294Z,40.20
2023-03-15T05:23:10.043Z,40.50
2023-03-15T05:25:39.565Z,40.60
2023-03-15T05:28:08.918Z,40.50
2023-03-15T05:30:38.646Z,39.80
2023-03-15T05:33:08.016Z,39.70
2023-03-15T05:35:38.477Z,39.70
2023-03-15T05:38:07.878Z,39.10
2023-03-15T05:40:37.295Z,39.00
2023-03-15T05:43:06.621Z,38.70
2023-03-15T05:45:35.999Z,38.70
2023-03-15T05:48:05.741Z,38.40
2023-03-15T05:50:35.988Z,38.70
2023-03-15T05:53:05.350Z,38.20
2023-03-15T05:55:34.670Z,38.00
2023-03-15T05:58:04.023Z,38.20
2023-03-15T06:00:33.826Z,39.00
2023-03-15T06:03:03.468Z,39.60
2023-03-15T06:05:32.870Z,39.10
2023-03-15T06:08:02.614Z,37.90
2023-03-15T06:10:31.970Z,37.90
2023-03-15T06:13:01.529Z,38.10
2023-03-15T06:15:30.901Z,37.90
2023-03-15T06:18:00.321Z,38.10
2023-03-15T06:20:29.767Z,38.50
2023-03-15T06:22:59.090Z,38.80
2023-03-15T06:25:29.688Z,38.50
2023-03-15T06:27:59.018Z,39.00
2023-03-15T06:30:28.802Z,38.80
2023-03-15T06:32:59.494Z,39.10
2023-03-15T06:35:29.922Z,39.20
2023-03-15T06:37:59.316Z,38.80
2023-03-15T06:40:30.492Z,38.70
2023-03-15T06:42:59.840Z,38.80
2023-03-15T06:45:29.615Z,38.60
2023-03-15T06:47:59.990Z,38.50
2023-03-15T06:50:40.545Z,38.90
2023-03-15T06:53:15.310Z,39.00
2023-03-15T06:55:45.218Z,39.30
2023-03-15T06:58:15.205Z,39.50
2023-03-15T07:00:46.901Z,39.30
2023-03-15T07:03:17.265Z,39.30
2023-03-15T07:05:48.260Z,39.50
2023-03-15T07:08:18.028Z,40.10
2023-03-15T07:10:48.766Z,40.00
2023-03-15T07:13:18.437Z,40.40
2023-03-15T07:15:49.760Z,40.50
2023-03-15T07:18:20.147Z,41.10
2023-03-15T07:20:50.108Z,41.40
2023-03-15T07:23:22.715Z,42.00
2023-03-15T07:25:55.211Z,42.60
2023-03-15T07:28:25.780Z,43.30
2023-03-15T07:31:01.878Z,43.40
2023-03-15T07:33:32.609Z,43.60
2023-03-15T07:36:02.367Z,44.10
2023-03-15T07:38:46.080Z,44.40
2023-03-15T07:44:07.294Z,44.80
2023-03-15T07:46:37.089Z,45.10
2023-03-15T07:49:09.309Z,45.40
2023-03-15T07:52:16.939Z,45.60
2023-03-15T07:54:46.465Z,45.90
2023-03-15T07:57:18.355Z,46.10
2023-03-15T07:59:47.721Z,46.40
2023-03-15T08:02:17.273Z,46.60
2023-03-15T08:04:46.725Z,46.80
2023-03-15T08:07:16.090Z,46.60
2023-03-15T08:09:45.425Z,46.70
2023-03-15T08:12:14.888Z,47.20
2023-03-15T08:14:44.429Z,47.20
2023-03-15T08:17:14.737Z,47.60
2023-03-15T08:19:44.405Z,47.40
2023-03-15T08:22:13.790Z,47.50
2023-03-15T08:24:43.550Z,47.50
2023-03-15T08:27:13.137Z,47.60
2023-03-15T08:29:42.755Z,47.70
2023-03-15T08:32:12.229Z,48.10
2023-03-15T08:34:41.754Z,48.00
2023-03-15T08:37:12.230Z,48.30
2023-03-15T08:40:17.353Z,48.50
2023-03-15T08:42:45.937Z,48.60
2023-03-15T09:06:28.157Z,49.80
2023-03-15T09:08:57.592Z,49.80
2023-03-15T09:11:28.247Z,49.60
2023-03-15T09:13:57.609Z,50.10
2023-03-15T09:16:27.437Z,50.30
2023-03-15T09:18:57.310Z,50.60
2023-03-15T09:21:27.453Z,50.80
2023-03-15T09:23:56.783Z,51.20
2023-03-15T09:26:26.138Z,51.30
2023-03-15T09:28:55.924Z,51.50
2023-03-15T09:31:26.527Z,51.20
2023-03-15T09:33:57.190Z,51.70
2023-03-15T09:36:29.304Z,52.20
2023-03-15T09:38:59.205Z,52.30
2023-03-15T09:41:48.476Z,52.60
2023-03-15T09:44:24.678Z,52.60
2023-03-15T09:46:55.079Z,52.50
2023-03-15T09:49:36.954Z,52.60
2023-03-15T09:52:11.766Z,52.90
2023-03-15T09:54:44.226Z,53.00
2023-03-15T09:57:19.501Z,53.20
2023-03-15T09:59:51.627Z,53.20
2023-03-15T10:02:26.321Z,54.00
2023-03-15T10:05:00.299Z,54.00
2023-03-15T10:39:52.309Z,55.30
2023-03-15T10:42:35.823Z,55.10
2023-03-15T10:45:17.324Z,55.30
2023-03-15T10:47:57.627Z,55.60
2023-03-15T10:50:31.993Z,55.20
2023-03-15T10:53:10.880Z,55.90
2023-03-15T10:55:49.467Z,55.60
2023-03-15T10:58:34.553Z,55.60
2023-03-15T11:01:12.634Z,55.30
2023-03-15T11:03:43.146Z,55.50
2023-03-15T11:06:24.218Z,55.50
2023-03-15T11:08:54.593Z,55.50
2023-03-15T11:11:24.387Z,55.70
2023-03-15T11:14:14.524Z,55.80
2023-03-15T11:16:48.937Z,56.00
2023-03-15T11:19:20.071Z,56.00
2023-03-15T11:21:51.056Z,56.20
2023-03-15T11:24:23.603Z,56.60
2023-03-15T11:26:56.873Z,56.80
2023-03-15T11:29:32.004Z,56.70
2023-03-15T11:32:03.931Z,56.80
2023-03-15T11:34:49.430Z,56.90
2023-03-15T11:37:27.908Z,56.90
2023-03-15T11:40:26.507Z,57.30
2023-03-15T11:43:14.242Z,57.00
2023-03-15T11:46:06.460Z,56.80
2023-03-15T11:48:42.359Z,56.90
2023-03-15T11:51:14.863Z,57.70
2023-03-15T11:53:47.599Z,57.50
2023-03-15T11:56:23.901Z,58.20
2023-03-15T11:59:11.748Z,58.60
2023-03-15T12:01:57.175Z,58.80
2023-03-15T12:04:35.542Z,59.10
2023-03-15T12:07:07.515Z,59.00
2023-03-15T12:09:39.515Z,59.80
2023-03-15T12:12:28.657Z,60.00
2023-03-15T12:15:16.947Z,60.10
2023-03-15T12:17:52.381Z,60.40
2023-03-15T12:20:42.306Z,60.60
2023-03-15T12:23:41.258Z,60.80
2023-03-15T12:26:12.993Z,61.10
2023-03-15T12:28:46.947Z,61.30
2023-03-15T12:31:16.431Z,61.20
2023-03-15T12:33:50.414Z,61.40
2023-03-15T12:36:32.284Z,61.70
2023-03-15T12:39:03.579Z,61.90
2023-03-15T12:41:39.243Z,62.30
2023-03-15T12:44:29.600Z,62.20
2023-03-15T12:47:00.351Z,62.70
2023-03-15T12:49:29.699Z,62.90
2023-03-15T12:52:00.545Z,62.90
2023-03-15T12:54:51.351Z,63.00
2023-03-15T12:57:29.839Z,63.10
2023-03-15T13:00:09.527Z,63.60
2023-03-15T13:02:48.166Z,63.40
2023-03-15T13:05:30.124Z,63.60
2023-03-15T13:08:07.129Z,63.60
2023-03-15T13:10:43.585Z,63.70
2023-03-15T13:13:22.142Z,64.00
2023-03-15T13:15:56.811Z,63.90
2023-03-15T13:18:26.578Z,64.40
2023-03-15T13:21:07.956Z,65.10
2023-03-15T13:23:37.803Z,65.10
2023-03-15T13:26:25.375Z,64.80
2023-03-15T13:29:22.093Z,65.20
2023-03-15T13:32:02.360Z,65.30
2023-03-15T13:34:33.634Z,65.40
2023-03-15T13:37:03.853Z,65.70
2023-03-15T13:39:36.776Z,65.80
2023-03-15T13:42:08.152Z,65.90
2023-03-15T13:44:38.526Z,66.10
2023-03-15T13:47:08.919Z,66.10
2023-03-15T13:49:38.446Z,66.50
2023-03-15T13:52:14.698Z,66.20
2023-03-15T13:54:46.000Z,66.40
2023-03-15T13:57:17.953Z,66.10
2023-03-15T13:59:47.688Z,66.00
2023-03-15T14:02:27.125Z,66.50
2023-03-15T14:05:05.429Z,66.20
2023-03-15T14:07:39.732Z,66.60
2023-03-15T14:41:43.843Z,67.90
2023-03-15T14:44:13.662Z,68.10
2023-03-15T14:46:44.540Z,68.10
2023-03-15T14:49:21.265Z,68.10
2023-03-15T14:51:52.966Z,68.50
2023-03-15T14:54:23.443Z,68.70
2023-03-15T14:56:52.859Z,68.60
2023-03-15T14:59:22.622Z,68.80
2023-03-15T15:01:53.965Z,68.90
2023-03-15T15:04:24.756Z,68.60
2023-03-15T15:06:54.338Z,68.60
2023-03-15T15:09:29.912Z,68.80
2023-03-15T15:11:59.729Z,69.40
2023-03-15T15:14:29.121Z,69.30
2023-03-15T15:16:58.509Z,69.40
2023-03-15T15:19:28.346Z,69.40
2023-03-15T15:21:58.115Z,69.40
2023-03-15T15:24:28.710Z,69.60
2023-03-15T15:26:58.048Z,69.90
2023-03-15T15:29:28.415Z,69.70
2023-03-15T15:31:58.254Z,69.90
2023-03-15T15:34:27.654Z,69.80
2023-03-15T15:36:57.685Z,70.10
2023-03-15T15:39:29.236Z,70.00
2023-03-15T15:41:58.776Z,70.30
2023-03-15T15:44:28.579Z,70.30
2023-03-15T15:46:59.994Z,70.40
2023-03-15T15:49:29.354Z,70.40
2023-03-15T15:51:59.629Z,70.50
2023-03-15T15:54:32.071Z,70.70
2023-03-15T15:57:05.843Z,70.80
2023-03-15T15:59:36.786Z,71.10
2023-03-15T16:02:15.535Z,71.30
2023-03-15T16:04:46.013Z,71.30
2023-03-15T16:07:16.803Z,71.50
2023-03-15T16:09:47.392Z,71.50
2023-03-15T16:12:17.986Z,71.50
2023-03-15T16:14:47.750Z,71.70
2023-03-15T16:17:26.556Z,71.90
2023-03-15T16:19:56.470Z,71.90
2023-03-15T16:22:27.032Z,72.10
2023-03-15T16:25:00.126Z,72.20
2023-03-15T16:27:31.166Z,72.10
2023-03-15T16:30:01.841Z,72.10
2023-03-15T16:32:43.552Z,71.90
2023-03-15T16:35:17.627Z,71.50
2023-03-15T17:05:04.875Z,72.10
2023-03-15T17:07:36.297Z,72.20
2023-03-15T17:10:10.004Z,72.40
2023-03-15T17:12:40.858Z,72.50
2023-03-15T17:15:11.412Z,72.70
2023-03-15T17:17:41.885Z,72.90
2023-03-15T17:20:15.467Z,72.80
2023-03-15T17:22:45.180Z,72.70
2023-03-15T17:25:14.813Z,72.80
2023-03-15T17:27:46.319Z,72.80
2023-03-15T17:30:17.590Z,73.10
2023-03-15T17:32:47.585Z,73.30
2023-03-15T17:35:17.757Z,73.40
2023-03-15T17:37:47.997Z,73.70
2023-03-15T17:40:22.954Z,73.70
2023-03-15T17:42:53.114Z,73.70
2023-03-15T17:45:24.210Z,73.40
2023-03-15T17:47:55.995Z,73.60
2023-03-15T17:50:27.116Z,73.50
2023-03-15T17:52:57.993Z,73.80
2023-03-15T17:55:30.328Z,73.50
2023-03-15T17:57:59.689Z,73.80
2023-03-15T18:00:30.265Z,74.20
2023-03-15T18:03:00.147Z,74.20
2023-03-15T18:05:31.011Z,74.50
2023-03-15T18:08:00.717Z,74.70
2023-03-15T18:10:38.295Z,74.90
2023-03-15T18:13:07.982Z,74.80
2023-03-15T18:15:37.762Z,75.00
2023-03-15T18:18:08.424Z,74.50
2023-03-15T18:20:38.728Z,74.60
2023-03-15T18:23:08.543Z,74.90
2023-03-15T18:25:38.957Z,74.70
2023-03-15T18:28:08.480Z,74.90
2023-03-15T18:30:38.212Z,74.50
2023-03-15T18:33:07.640Z,74.30
2023-03-15T18:35:38.364Z,74.50
2023-03-15T18:38:07.834Z,74.60
2023-03-15T18:40:37.269Z,75.00
2023-03-15T18:43:08.184Z,74.80
2023-03-15T18:45:37.937Z,75.20
2023-03-15T18:48:07.970Z,75.00
2023-03-15T18:50:37.495Z,75.20
2023-03-15T18:53:06.900Z,75.10
2023-03-15T18:55:36.777Z,75.10
2023-03-15T18:58:07.709Z,75.30
2023-03-15T19:00:38.344Z,75.30
2023-03-15T19:03:08.678Z,75.70
2023-03-15T19:05:39.181Z,75.50
2023-03-15T19:08:12.307Z,75.50
2023-03-15T19:10:42.099Z,75.50
2023-03-15T19:13:11.499Z,75.50
2023-03-15T19:15:41.832Z,75.40
2023-03-15T19:18:11.796Z,75.70
2023-03-15T19:20:41.652Z,76.10
2023-03-15T19:23:11.092Z,75.90
2023-03-15T19:25:41.599Z,76.10
2023-03-15T19:28:11.428Z,75.90
2023-03-15T19:30:41.237Z,75.90
2023-03-15T19:33:10.785Z,75.80
2023-03-15T19:35:40.766Z,75.80
2023-03-15T19:38:10.771Z,75.60
2023-03-15T19:40:40.657Z,75.80
2023-03-15T19:43:12.857Z,76.50
2023-03-15T19:45:42.200Z,76.10
2023-03-15T19:48:11.541Z,75.80
2023-03-15T19:50:40.948Z,76.10
2023-03-15T19:53:10.309Z,76.00
2023-03-15T19:55:39.677Z,76.00
2023-03-15T19:58:10.043Z,75.90
2023-03-15T20:00:39.415Z,76.10
2023-03-15T20:03:08.770Z,76.00
2023-03-15T20:05:39.685Z,76.00
2023-03-15T20:08:10.011Z,76.00
2023-03-15T20:10:39.330Z,76.40
2023-03-15T20:13:10.806Z,76.60
2023-03-15T20:15:40.215Z,76.50
2023-03-15T20:18:12.698Z,76.70
2023-03-15T20:20:42.613Z,76.60
2023-03-15T20:23:12.081Z,76.90
2023-03-15T20:25:41.451Z,76.90
2023-03-15T20:28:11.099Z,76.80
2023-03-15T20:30:44.885Z,76.70
2023-03-15T20:33:14.201Z,77.10
2023-03-15T20:35:45.048Z,77.00
2023-03-15T20:38:14.823Z,77.00
2023-03-15T20:40:45.728Z,77.20
2023-03-15T20:43:15.223Z,77.10
2023-03-15T20:45:45.492Z,77.10
2023-03-15T20:48:15.256Z,77.10
2023-03-15T20:50:44.997Z,77.10
2023-03-15T20:53:16.162Z,77.10
2023-03-15T20:55:45.791Z,77.60
2023-03-15T20:58:16.287Z,77.80
2023-03-15T21:00:48.403Z,77.30
2023-03-15T21:03:19.390Z,77.70
2023-03-15T21:05:48.867Z,76.80
2023-03-15T21:08:18.971Z,76.50
2023-03-15T21:10:48.346Z,76.10
2023-03-15T21:13:18.232Z,76.40
2023-03-15T21:15:48.344Z,77.00
